Queen Of Cumberland — VG2029 — position and weather

sailwx.info

Track history (hours):
 
Tides and Currents Weather Stations Pressure Air Temp Water Temp Dewpoint Dewpoint Depression Visibility Wind Speed Wind Dir Waves Ship Positions

Queen Of Cumberland

Last reported at 2018-Jul-16 02:30 UTC. Time now 2018-Jul-16 02:39 UTC.
Position N 48°46' W 123°21'.

Length 96 m; draft 3.7 m.

Type: Passenger vessel. MMSI: 316001252.

Date/timePositionNaut miles runAvg speedWind from/ knotsBaromVisibWave heightAir tempDewpointWater temp
2018-Jul-16 02:30N 48°46' W 123°21'611.1
2018-Jul-16 02:00N 48°41' W 123°25'1 2.4
2018-Jul-16 01:30N 48°42' W 123°24'612.5
2018-Jul-16 00:59N 48°48' W 123°19'4 7.0
2018-Jul-16 00:26N 48°45' W 123°22'4 8.6
2018-Jul-16 00:00N 48°41' W 123°25'4 7.2
2018-Jul-15 23:30N 48°45' W 123°23'611.7
2018-Jul-15 23:00N 48°50' W 123°20'0 0.5
2018-Jul-15 22:28N 48°51' W 123°20'3 4.5
2018-Jul-15 21:51N 48°48' W 123°19'3 9.9
2018-Jul-15 21:30N 48°45' W 123°22'4 8.5
2018-Jul-15 21:00N 48°41' W 123°25'0 0.0
2018-Jul-15 20:30N 48°41' W 123°25'510.7
2018-Jul-15 20:00N 48°46' W 123°20'2 4.5
2018-Jul-15 19:30N 48°48' W 123°20'5 9.5
2018-Jul-15 18:57N 48°48' W 123°12'4 7.3
2018-Jul-15 18:22N 48°49' W 123°18'1 4.0
2018-Jul-15 18:00N 48°51' W 123°20'3 6.9
2018-Jul-15 17:30N 48°47' W 123°21'612.4
2018-Jul-15 17:00N 48°42' W 123°24'0 0.6
2018-Jul-15 16:30N 48°41' W 123°25'510.7
2018-Jul-15 16:00N 48°46' W 123°21'2 4.6
2018-Jul-15 15:30N 48°48' W 123°19'4 8.0
2018-Jul-15 14:58N 48°52' W 123°18'1 2.2
2018-Jul-15 14:25N 48°52' W 123°20'510.2
2018-Jul-15 13:58N 48°47' W 123°21'612.6
2018-Jul-15 13:30N 48°42' W 123°24'0 0.6
2018-Jul-15 13:00N 48°41' W 123°25'0 0.0
2018-Jul-15 12:30N 48°41' W 123°25'0 0.0
2018-Jul-15 12:00N 48°41' W 123°25'0 0.0
2018-Jul-15 11:30N 48°41' W 123°25'0 0.0
2018-Jul-15 11:00N 48°41' W 123°25'0 0.0
2018-Jul-15 10:30N 48°41' W 123°25'0 0.0
2018-Jul-15 09:59N 48°41' W 123°25'0 0.0
2018-Jul-15 09:30N 48°41' W 123°25'0 0.0
2018-Jul-15 09:00N 48°41' W 123°25'0 0.0
2018-Jul-15 08:30N 48°41' W 123°25'0 0.0
2018-Jul-15 08:00N 48°41' W 123°25'0 0.0
2018-Jul-15 07:30N 48°41' W 123°25'0 0.0
2018-Jul-15 07:00N 48°41' W 123°25'0 0.0
2018-Jul-15 06:30N 48°41' W 123°25'0 0.0
2018-Jul-15 06:00N 48°41' W 123°25'0 0.0
2018-Jul-15 05:30N 48°41' W 123°25'4 7.4
2018-Jul-15 05:01N 48°45' W 123°23'612.5
2018-Jul-15 04:30N 48°51' W 123°20'3 5.2
2018-Jul-15 04:00N 48°48' W 123°20'2 5.0
2018-Jul-15 03:30N 48°46' W 123°21'5 9.9
2018-Jul-15 03:00N 48°41' W 123°25'2 4.0
2018-Jul-15 02:30N 48°43' W 123°24'6 9.7
2018-Jul-15 01:55N 48°48' W 123°19'3 6.6
2018-Jul-15 01:30N 48°51' W 123°20'2 4.7
2018-Jul-15 01:00N 48°48' W 123°21'612.5
2018-Jul-15 00:30N 48°43' W 123°24'1 2.5
2018-Jul-15 00:01N 48°41' W 123°24'712.2
2018-Jul-14 23:28N 48°48' W 123°21'3 6.9
2018-Jul-14 23:00N 48°51' W 123°20'3 5.5
2018-Jul-14 22:30N 48°48' W 123°19'3 6.9
2018-Jul-14 22:01N 48°45' W 123°22'4 8.4
2018-Jul-14 21:30N 48°41' W 123°25'0 0.0
2018-Jul-14 21:01N 48°41' W 123°25'0 0.0
2018-Jul-14 20:31N 48°41' W 123°25'5 9.2
2018-Jul-14 20:00N 48°45' W 123°20'3 6.0
2018-Jul-14 19:30N 48°48' W 123°19'612.2
2018-Jul-14 19:00N 48°42' W 123°22'2 3.6
2018-Jul-14 18:30N 48°41' W 123°25'5 9.0
2018-Jul-14 18:00N 48°46' W 123°22'5 9.7
2018-Jul-14 17:26N 48°51' W 123°20'3 6.2
2018-Jul-14 17:00N 48°48' W 123°19'2 4.9
2018-Jul-14 16:30N 48°46' W 123°21'510.0
2018-Jul-14 15:59N 48°41' W 123°25'1 2.6
2018-Jul-14 15:31N 48°42' W 123°24'612.7
2018-Jul-14 15:00N 48°48' W 123°19'1 1.2
2018-Jul-14 14:31N 48°48' W 123°20'3 3.2
2018-Jul-14 13:30N 48°51' W 123°21'611.8
2018-Jul-14 13:00N 48°45' W 123°22'4 8.8
2018-Jul-14 12:30N 48°41' W 123°25'0 0.0
2018-Jul-14 12:00N 48°41' W 123°25'0 0.0
2018-Jul-14 11:30N 48°41' W 123°25'0 0.0
2018-Jul-14 11:00N 48°41' W 123°25'0 0.0
2018-Jul-14 10:30N 48°41' W 123°25'0 0.0
2018-Jul-14 10:00N 48°41' W 123°25'0 0.0
2018-Jul-14 09:30N 48°41' W 123°25'0 0.0
2018-Jul-14 09:00N 48°41' W 123°25'0 0.0
2018-Jul-14 08:30N 48°41' W 123°25'0 0.0
2018-Jul-14 07:58N 48°41' W 123°25'0 0.0
2018-Jul-14 07:30N 48°41' W 123°25'0 0.0
2018-Jul-14 07:00N 48°41' W 123°25'0 0.0
2018-Jul-14 06:28N 48°41' W 123°25'0 0.0
2018-Jul-14 06:00N 48°41' W 123°25'0 0.0
2018-Jul-14 05:30N 48°41' W 123°25'612.3
2018-Jul-14 05:00N 48°47' W 123°20'1 2.4
2018-Jul-14 04:30N 48°46' W 123°21'5 9.8
2018-Jul-14 04:00N 48°41' W 123°25'1 1.5
2018-Jul-14 03:31N 48°42' W 123°24'713.5
2018-Jul-14 03:00N 48°48' W 123°19'2 3.0
2018-Jul-14 02:30N 48°47' W 123°20'612.0
2018-Jul-14 02:00N 48°41' W 123°24'1 1.1
2018-Jul-14 01:31N 48°42' W 123°24'713.2
2018-Jul-14 00:59N 48°49' W 123°21'2 4.5
2018-Jul-14 00:28N 48°51' W 123°20'612.0
2018-Jul-14 00:00N 48°45' W 123°22'4 8.7
2018-Jul-13 23:30N 48°41' W 123°25'2 4.4
2018-Jul-13 23:00N 48°43' W 123°24'611.0
2018-Jul-13 22:30N 48°48' W 123°19'2 4.3
2018-Jul-13 22:00N 48°46' W 123°21'511.1
2018-Jul-13 21:30N 48°41' W 123°25'0 0.0
2018-Jul-13 21:01N 48°41' W 123°25'0 0.0
2018-Jul-13 20:29N 48°41' W 123°25'0 0.0
2018-Jul-13 20:00N 48°41' W 123°25'3 5.2
2018-Jul-13 19:31N 48°44' W 123°24'510.0
2018-Jul-13 18:59N 48°48' W 123°19'2 4.6
2018-Jul-13 18:30N 48°50' W 123°20'0 0.4
2018-Jul-13 18:00N 48°50' W 123°20'611.2
2018-Jul-13 17:30N 48°48' W 123°12'5 8.4
2018-Jul-13 16:56N 48°50' W 123°19'510.9
2018-Jul-13 16:30N 48°45' W 123°22'4 8.7
2018-Jul-13 16:00N 48°41' W 123°25'2 3.1
2018-Jul-13 15:30N 48°43' W 123°24'611.8
2018-Jul-13 15:01N 48°48' W 123°19'3 2.9
2018-Jul-13 14:00N 48°51' W 123°20'2 3.8
2018-Jul-13 13:30N 48°53' W 123°19'3 5.6
2018-Jul-13 12:59N 48°50' W 123°21'612.2
2018-Jul-13 12:30N 48°44' W 123°23'3 6.4
2018-Jul-13 12:00N 48°41' W 123°25'0 0.0
2018-Jul-13 11:30N 48°41' W 123°25'0 0.0
2018-Jul-13 11:00N 48°41' W 123°25'0 0.0
2018-Jul-13 10:30N 48°41' W 123°25'0 0.0
2018-Jul-13 09:59N 48°41' W 123°25'0 0.0
2018-Jul-13 09:30N 48°41' W 123°25'0 0.0
2018-Jul-13 09:00N 48°41' W 123°25'0 0.0
2018-Jul-13 08:29N 48°41' W 123°25'0 0.0
2018-Jul-13 07:59N 48°41' W 123°25'0 0.0
2018-Jul-13 07:30N 48°41' W 123°25'0 0.0
2018-Jul-13 07:00N 48°41' W 123°25'0 0.0
2018-Jul-13 06:30N 48°41' W 123°25'0 0.7
2018-Jul-13 06:00N 48°42' W 123°24'612.2
2018-Jul-13 05:30N 48°47' W 123°20'2 3.4
2018-Jul-13 05:00N 48°46' W 123°21'5 9.8
2018-Jul-13 04:30N 48°41' W 123°25'4 9.0
2018-Jul-13 04:00N 48°45' W 123°22'3 6.1
2018-Jul-13 03:30N 48°48' W 123°19'611.2
2018-Jul-13 03:00N 48°43' W 123°24'2 4.3
2018-Jul-13 02:30N 48°41' W 123°25'611.3
2018-Jul-13 02:00N 48°47' W 123°21'4 6.7
2018-Jul-13 01:22N 48°51' W 123°20'2 6.2
2018-Jul-13 01:00N 48°48' W 123°20'611.7
2018-Jul-13 00:30N 48°43' W 123°24'2 3.7
2018-Jul-13 00:00N 48°41' W 123°25'0 0.0
2018-Jul-12 23:29N 48°41' W 123°25'510.9
2018-Jul-12 23:00N 48°46' W 123°21'2 4.6
2018-Jul-12 22:28N 48°48' W 123°19'4 7.9
2018-Jul-12 22:00N 48°45' W 123°22'4 8.0
2018-Jul-12 21:30N 48°41' W 123°25'0 0.0
2018-Jul-12 21:00N 48°41' W 123°25'0 0.0
2018-Jul-12 20:30N 48°41' W 123°25'0 0.0
2018-Jul-12 20:01N 48°41' W 123°25'612.0
2018-Jul-12 19:30N 48°47' W 123°20'2 3.0
2018-Jul-12 18:59N 48°48' W 123°19'3 5.7
2018-Jul-12 18:30N 48°51' W 123°20'5 3.9
2018-Jul-12 17:17N 48°48' W 123°13'414.6
2018-Jul-12 17:00N 48°50' W 123°19'611.8
2018-Jul-12 16:30N 48°44' W 123°23'3 6.1
2018-Jul-12 16:00N 48°41' W 123°25'2 4.4
2018-Jul-12 15:30N 48°43' W 123°24'611.1
2018-Jul-12 15:00N 48°48' W 123°19'0 0.4
2018-Jul-12 14:31N 48°48' W 123°19'3 5.7
2018-Jul-12 14:00N 48°51' W 123°20'2 3.8
2018-Jul-12 13:30N 48°53' W 123°19'3 5.5
2018-Jul-12 13:00N 48°50' W 123°21'611.3
2018-Jul-12 12:30N 48°45' W 123°23'4 7.2
2018-Jul-12 12:00N 48°41' W 123°25'0 0.0
2018-Jul-12 11:30N 48°41' W 123°25'0 0.0
2018-Jul-12 11:00N 48°41' W 123°25'0 0.0
2018-Jul-12 10:30N 48°41' W 123°25'0 0.0
2018-Jul-12 10:00N 48°41' W 123°25'0 0.0
2018-Jul-12 09:29N 48°41' W 123°25'0 0.0
2018-Jul-12 09:00N 48°41' W 123°25'0 0.0
2018-Jul-12 08:30N 48°41' W 123°25'0 0.0
2018-Jul-12 08:00N 48°41' W 123°25'0 0.0
2018-Jul-12 07:27N 48°41' W 123°25'0 0.0
2018-Jul-12 07:00N 48°41' W 123°25'0 0.0
2018-Jul-12 06:30N 48°41' W 123°25'0 0.0
2018-Jul-12 06:00N 48°41' W 123°25'0 0.0
2018-Jul-12 05:30N 48°41' W 123°25'0 0.0
2018-Jul-12 05:00N 48°41' W 123°25'1 2.6
2018-Jul-12 04:30N 48°43' W 123°24'713.1
2018-Jul-12 04:00N 48°49' W 123°20'4 7.8
2018-Jul-12 03:30N 48°53' W 123°19'3 5.3
2018-Jul-12 03:00N 48°50' W 123°20'2 4.7
2018-Jul-12 02:30N 48°48' W 123°19'612.7
2018-Jul-12 02:01N 48°42' W 123°24'1 2.1
2018-Jul-12 01:31N 48°41' W 123°25'510.4
2018-Jul-12 01:01N 48°46' W 123°22'5 9.0
2018-Jul-12 00:29N 48°51' W 123°20'2 3.7
2018-Jul-11 23:57N 48°49' W 123°20'612.8
2018-Jul-11 23:31N 48°44' W 123°24'2 4.7
2018-Jul-11 23:01N 48°41' W 123°25'4 8.9
2018-Jul-11 22:30N 48°45' W 123°22'3 6.3
2018-Jul-11 22:00N 48°48' W 123°19'510.4
2018-Jul-11 21:30N 48°44' W 123°24'3 5.2
2018-Jul-11 21:00N 48°41' W 123°25'0 0.0
2018-Jul-11 20:30N 48°41' W 123°25'0 0.0
2018-Jul-11 20:00N 48°41' W 123°25'2 4.4
2018-Jul-11 19:30N 48°43' W 123°24'610.6
2018-Jul-11 18:59N 48°48' W 123°19'2 5.1
2018-Jul-11 18:30N 48°50' W 123°20'1 1.4
2018-Jul-11 17:59N 48°50' W 123°20'4 4.2
2018-Jul-11 17:08N 48°49' W 123°14'314.8
2018-Jul-11 16:55N 48°50' W 123°19'511.8
2018-Jul-11 16:30N 48°45' W 123°22'4 8.4
2018-Jul-11 16:00N 48°41' W 123°25'1 2.5
2018-Jul-11 15:30N 48°42' W 123°24'612.8
2018-Jul-11 15:00N 48°48' W 123°19'1 1.5
2018-Jul-11 14:30N 48°48' W 123°20'3 7.0
2018-Jul-11 14:00N 48°52' W 123°21'1 2.9
2018-Jul-11 13:30N 48°53' W 123°19'3 5.7
2018-Jul-11 13:00N 48°50' W 123°21'611.8
2018-Jul-11 12:30N 48°44' W 123°23'3 6.3
2018-Jul-11 11:59N 48°41' W 123°25'0 0.0
2018-Jul-11 11:30N 48°41' W 123°25'0 0.0
2018-Jul-11 11:01N 48°41' W 123°25'0 0.0
2018-Jul-11 10:30N 48°41' W 123°25'0 0.0
2018-Jul-11 10:01N 48°41' W 123°25'0 0.0
2018-Jul-11 09:31N 48°41' W 123°25'0 0.0
2018-Jul-11 09:01N 48°41' W 123°25'0 0.0
2018-Jul-11 08:31N 48°41' W 123°25'0 0.0
2018-Jul-11 08:00N 48°41' W 123°25'0 0.0
2018-Jul-11 07:31N 48°41' W 123°25'0 0.0
2018-Jul-11 07:01N 48°41' W 123°25'0 0.0
2018-Jul-11 06:31N 48°41' W 123°25'0 0.0
2018-Jul-11 06:00N 48°41' W 123°25'0 0.0
2018-Jul-11 05:31N 48°41' W 123°25'0 0.0
2018-Jul-11 05:00N 48°41' W 123°25'1 2.5
2018-Jul-11 04:31N 48°43' W 123°24'713.2
2018-Jul-11 04:00N 48°49' W 123°21'4 7.9
2018-Jul-11 03:31N 48°53' W 123°19'3 6.3
2018-Jul-11 02:59N 48°49' W 123°20'2 4.3
2018-Jul-11 02:30N 48°47' W 123°20'612.3
2018-Jul-11 02:01N 48°42' W 123°24'1 1.6
2018-Jul-11 01:31N 48°41' W 123°25'611.3
2018-Jul-11 00:59N 48°47' W 123°21'4 6.6
2018-Jul-11 00:23N 48°51' W 123°20'4 9.8
2018-Jul-11 00:00N 48°47' W 123°20'612.4
2018-Jul-10 23:30N 48°41' W 123°24'0 0.2
2018-Jul-10 23:00N 48°41' W 123°25'611.2
2018-Jul-10 22:29N 48°46' W 123°21'2 3.3
2018-Jul-10 21:56N 48°48' W 123°19'512.5
2018-Jul-10 21:30N 48°44' W 123°24'2 4.6
2018-Jul-10 21:00N 48°41' W 123°25'0 0.0
2018-Jul-10 20:30N 48°41' W 123°25'0 0.0
2018-Jul-10 20:00N 48°41' W 123°25'3 5.1
2018-Jul-10 19:30N 48°44' W 123°23'5 9.4
2018-Jul-10 18:58N 48°48' W 123°19'3 5.9
2018-Jul-10 18:30N 48°51' W 123°20'6 8.1
2018-Jul-10 17:49N 48°48' W 123°12'1 2.3
2018-Jul-10 17:23N 48°47' W 123°13'4 9.8
2018-Jul-10 17:00N 48°44' W 123°11'510.3
2018-Jul-10 16:30N 48°42' W 123°18'5 9.1
2018-Jul-10 16:00N 48°41' W 123°25'1 1.9
2018-Jul-10 15:30N 48°42' W 123°24'713.0
2018-Jul-10 15:00N 48°48' W 123°19'1 1.2
2018-Jul-10 14:31N 48°48' W 123°20'3 5.1
2018-Jul-10 14:00N 48°51' W 123°20'2 3.8
2018-Jul-10 13:30N 48°53' W 123°19'3 5.8
2018-Jul-10 12:59N 48°50' W 123°21'511.5
2018-Jul-10 12:30N 48°45' W 123°23'3 6.7
2018-Jul-10 12:00N 48°41' W 123°25'0 0.0
2018-Jul-10 11:30N 48°41' W 123°25'0 0.0
2018-Jul-10 11:00N 48°41' W 123°25'0 0.0
2018-Jul-10 10:30N 48°41' W 123°25'0 0.0
2018-Jul-10 10:00N 48°41' W 123°25'0 0.0
2018-Jul-10 09:30N 48°41' W 123°25'0 0.0
2018-Jul-10 09:00N 48°41' W 123°25'0 0.0
2018-Jul-10 08:30N 48°41' W 123°25'0 0.0
2018-Jul-10 08:00N 48°41' W 123°25'0 0.0
2018-Jul-10 07:30N 48°41' W 123°25'0 0.0
2018-Jul-10 06:59N 48°41' W 123°25'0 0.0
2018-Jul-10 06:30N 48°41' W 123°25'0 0.0
2018-Jul-10 06:00N 48°41' W 123°25'0 0.0
2018-Jul-10 05:30N 48°41' W 123°25'0 0.0
2018-Jul-10 05:00N 48°41' W 123°25'2 3.9
2018-Jul-10 04:30N 48°43' W 123°24'713.1
2018-Jul-10 03:59N 48°50' W 123°20'3 6.4
2018-Jul-10 03:30N 48°53' W 123°19'3 4.9
2018-Jul-10 02:59N 48°50' W 123°20'3 5.5
2018-Jul-10 02:30N 48°47' W 123°20'612.9
2018-Jul-10 02:00N 48°42' W 123°24'0 0.9
2018-Jul-10 01:29N 48°42' W 123°24'511.3
2018-Jul-10 01:00N 48°47' W 123°21'4 5.1
2018-Jul-10 00:12N 48°51' W 123°20'310.9
2018-Jul-09 23:57N 48°48' W 123°20'612.5
2018-Jul-09 23:31N 48°43' W 123°24'2 3.4
2018-Jul-09 23:01N 48°41' W 123°25'4 8.2
2018-Jul-09 22:31N 48°45' W 123°22'4 6.9
2018-Jul-09 22:00N 48°48' W 123°19'5 9.7
2018-Jul-09 21:30N 48°44' W 123°23'3 5.9
2018-Jul-09 21:00N 48°41' W 123°25'0 0.0
2018-Jul-09 20:30N 48°41' W 123°25'0 0.0
2018-Jul-09 20:01N 48°41' W 123°25'4 7.4
2018-Jul-09 19:30N 48°45' W 123°22'4 8.0
2018-Jul-09 19:00N 48°48' W 123°19'2 4.2
2018-Jul-09 18:30N 48°50' W 123°20'0 0.7
2018-Jul-09 17:59N 48°50' W 123°20'5 8.2
2018-Jul-09 17:20N 48°48' W 123°12'4 9.7
2018-Jul-09 16:55N 48°49' W 123°18'511.9
2018-Jul-09 16:30N 48°45' W 123°22'4 8.8
2018-Jul-09 16:00N 48°41' W 123°25'1 2.8
2018-Jul-09 15:30N 48°43' W 123°24'612.4
2018-Jul-09 15:01N 48°48' W 123°19'0 0.1
2018-Jul-09 14:30N 48°48' W 123°19'3 5.4
2018-Jul-09 14:00N 48°51' W 123°20'2 3.4
2018-Jul-09 13:26N 48°53' W 123°19'2 5.9
2018-Jul-09 13:00N 48°51' W 123°21'611.9
2018-Jul-09 12:30N 48°45' W 123°23'4 7.3
2018-Jul-09 12:00N 48°41' W 123°25'0 0.0
2018-Jul-09 11:30N 48°41' W 123°25'0 0.0
2018-Jul-09 11:00N 48°41' W 123°25'0 0.0
2018-Jul-09 10:30N 48°41' W 123°25'0 0.0
2018-Jul-09 10:00N 48°41' W 123°25'0 0.0
2018-Jul-09 09:30N 48°41' W 123°25'0 0.0
2018-Jul-09 09:00N 48°41' W 123°25'0 0.0
2018-Jul-09 08:30N 48°41' W 123°25'0 0.0
2018-Jul-09 08:00N 48°41' W 123°25'0 0.0
2018-Jul-09 07:29N 48°41' W 123°25'0 0.0
2018-Jul-09 07:00N 48°41' W 123°25'0 0.0
2018-Jul-09 06:30N 48°41' W 123°25'0 0.0
2018-Jul-09 06:00N 48°41' W 123°25'0 0.0
2018-Jul-09 05:30N 48°41' W 123°25'0 0.0
2018-Jul-09 04:58N 48°41' W 123°25'511.3
2018-Jul-09 04:30N 48°46' W 123°21'2 3.9
2018-Jul-09 04:01N 48°48' W 123°20'3 5.0
2018-Jul-09 03:27N 48°51' W 123°20'3 6.1
2018-Jul-09 03:00N 48°48' W 123°19'3 5.4
2018-Jul-09 02:30N 48°46' W 123°21'5 9.9
2018-Jul-09 02:01N 48°41' W 123°25'2 3.2
2018-Jul-09 01:30N 48°43' W 123°24'611.5
2018-Jul-09 00:59N 48°48' W 123°19'3 7.4
2018-Jul-09 00:30N 48°45' W 123°22'4 8.3
2018-Jul-09 00:01N 48°41' W 123°25'4 8.8
2018-Jul-08 23:30N 48°45' W 123°22'6 9.7
2018-Jul-08 22:56N 48°51' W 123°20'1 3.3
2018-Jul-08 22:31N 48°49' W 123°20'1 2.4
2018-Jul-08 21:54N 48°48' W 123°19'410.7
2018-Jul-08 21:31N 48°45' W 123°23'4 7.1
2018-Jul-08 21:01N 48°41' W 123°25'0 0.0
2018-Jul-08 20:30N 48°41' W 123°25'510.5
2018-Jul-08 20:00N 48°46' W 123°21'2 4.5
2018-Jul-08 19:30N 48°48' W 123°19'4 7.1
2018-Jul-08 18:56N 48°48' W 123°13'1 2.1
2018-Jul-08 18:27N 48°48' W 123°14'4 8.7
2018-Jul-08 18:00N 48°51' W 123°20'3 6.5
2018-Jul-08 17:30N 48°48' W 123°21'713.0
2018-Jul-08 17:00N 48°42' W 123°24'0 0.5
2018-Jul-08 16:30N 48°41' W 123°25'510.8
2018-Jul-08 16:00N 48°46' W 123°21'2 4.2
2018-Jul-08 15:29N 48°48' W 123°19'4 8.5
2018-Jul-08 14:58N 48°52' W 123°18'0 0.8
2018-Jul-08 14:29N 48°53' W 123°19'2 4.0
2018-Jul-08 14:00N 48°51' W 123°20'611.6
2018-Jul-08 13:30N 48°45' W 123°22'4 8.4
2018-Jul-08 13:01N 48°41' W 123°25'0 0.0
2018-Jul-08 12:30N 48°41' W 123°25'0 0.0
2018-Jul-08 12:01N 48°41' W 123°25'0 0.0
2018-Jul-08 11:31N 48°41' W 123°25'0 0.0
2018-Jul-08 11:00N 48°41' W 123°25'0 0.0
2018-Jul-08 10:28N 48°41' W 123°25'0 0.0
2018-Jul-08 10:01N 48°41' W 123°25'0 0.0
2018-Jul-08 09:31N 48°41' W 123°25'0 0.0
2018-Jul-08 09:00N 48°41' W 123°25'0 0.0
2018-Jul-08 08:30N 48°41' W 123°25'0 0.0
2018-Jul-08 08:01N 48°41' W 123°25'0 0.0
2018-Jul-08 07:31N 48°41' W 123°25'0 0.0
2018-Jul-08 07:01N 48°41' W 123°25'0 0.0
2018-Jul-08 06:31N 48°41' W 123°25'0 0.0
2018-Jul-08 06:01N 48°41' W 123°25'0 0.0
2018-Jul-08 05:29N 48°41' W 123°25'4 7.7
2018-Jul-08 05:00N 48°45' W 123°23'612.4
2018-Jul-08 04:30N 48°51' W 123°20'2 5.0
2018-Jul-08 04:01N 48°48' W 123°20'2 4.7
2018-Jul-08 03:30N 48°46' W 123°21'510.0
2018-Jul-08 03:00N 48°41' W 123°25'2 4.6
2018-Jul-08 02:30N 48°44' W 123°24'510.6
2018-Jul-08 01:59N 48°48' W 123°19'3 5.7
2018-Jul-08 01:30N 48°51' W 123°20'4 6.7
2018-Jul-08 00:58N 48°47' W 123°21'612.6
2018-Jul-08 00:30N 48°42' W 123°24'1 1.1
2018-Jul-08 00:00N 48°41' W 123°25'611.3
2018-Jul-07 23:29N 48°47' W 123°21'4 8.4
2018-Jul-07 23:00N 48°51' W 123°20'3 5.3
2018-Jul-07 22:30N 48°48' W 123°19'4 7.7
2018-Jul-07 22:00N 48°45' W 123°22'4 7.8
2018-Jul-07 21:30N 48°41' W 123°25'0 0.0
2018-Jul-07 21:00N 48°41' W 123°25'0 0.0
2018-Jul-07 20:30N 48°41' W 123°25'5 9.5
2018-Jul-07 20:00N 48°46' W 123°22'3 5.8
2018-Jul-07 19:30N 48°48' W 123°19'613.0
2018-Jul-07 19:01N 48°42' W 123°24'1 2.3
2018-Jul-07 18:30N 48°41' W 123°25'510.5
2018-Jul-07 18:00N 48°46' W 123°22'5 9.1
2018-Jul-07 17:30N 48°51' W 123°20'3 5.6
2018-Jul-07 17:00N 48°48' W 123°19'2 3.7
2018-Jul-07 16:31N 48°46' W 123°20'611.4
2018-Jul-07 16:00N 48°41' W 123°25'2 3.2
2018-Jul-07 15:30N 48°43' W 123°24'612.1
2018-Jul-07 15:00N 48°48' W 123°19'2 3.9
2018-Jul-07 14:30N 48°50' W 123°20'3 5.8
2018-Jul-07 14:01N 48°53' W 123°19'2 4.1
2018-Jul-07 13:30N 48°51' W 123°21'611.6
2018-Jul-07 13:01N 48°45' W 123°22'4 8.7
2018-Jul-07 12:30N 48°41' W 123°25'0 0.0
2018-Jul-07 12:00N 48°41' W 123°25'0 0.0
2018-Jul-07 11:30N 48°41' W 123°25'0 0.0
2018-Jul-07 11:00N 48°41' W 123°25'0 0.0
2018-Jul-07 10:31N 48°41' W 123°25'0 0.0
2018-Jul-07 10:01N 48°41' W 123°25'0 0.0
2018-Jul-07 09:30N 48°41' W 123°25'0 0.0
2018-Jul-07 08:58N 48°41' W 123°25'0 0.0
2018-Jul-07 08:29N 48°41' W 123°25'0 0.0
2018-Jul-07 08:01N 48°41' W 123°25'0 0.0
2018-Jul-07 07:30N 48°41' W 123°25'0 0.0
2018-Jul-07 07:00N 48°41' W 123°25'0 0.0
2018-Jul-07 06:31N 48°41' W 123°25'0 0.0
2018-Jul-07 06:00N 48°41' W 123°25'3 6.3
2018-Jul-07 05:31N 48°44' W 123°23'4 8.5
2018-Jul-07 05:00N 48°48' W 123°19'2 5.1
2018-Jul-07 04:31N 48°46' W 123°21'5 9.9
2018-Jul-07 04:01N 48°41' W 123°25'4 7.8
2018-Jul-07 03:30N 48°45' W 123°22'4 6.7
2018-Jul-07 02:57N 48°48' W 123°19'512.0
2018-Jul-07 02:30N 48°43' W 123°21'3 5.6
2018-Jul-07 02:00N 48°41' W 123°25'4 7.8
2018-Jul-07 01:30N 48°45' W 123°23'612.0
2018-Jul-07 01:00N 48°51' W 123°20'2 3.7
2018-Jul-07 00:28N 48°49' W 123°21'612.5
2018-Jul-07 00:00N 48°43' W 123°24'2 4.3
2018-Jul-06 23:30N 48°41' W 123°25'3 6.1
2018-Jul-06 23:00N 48°44' W 123°23'5 8.2
2018-Jul-06 22:27N 48°48' W 123°19'3 6.1
2018-Jul-06 22:00N 48°46' W 123°22'510.1
2018-Jul-06 21:30N 48°41' W 123°25'0 0.0
2018-Jul-06 21:00N 48°41' W 123°25'0 0.0
2018-Jul-06 20:30N 48°41' W 123°25'0 0.0
2018-Jul-06 20:00N 48°41' W 123°25'510.0
2018-Jul-06 19:30N 48°46' W 123°21'3 5.2
2018-Jul-06 19:00N 48°48' W 123°19'3 4.4
2018-Jul-06 18:24N 48°51' W 123°20'6 6.6
2018-Jul-06 17:33N 48°48' W 123°12'0 0.3
2018-Jul-06 17:18N 48°48' W 123°12'513.0
2018-Jul-06 16:56N 48°50' W 123°19'512.6
2018-Jul-06 16:30N 48°45' W 123°23'4 7.3
2018-Jul-06 16:00N 48°41' W 123°25'2 3.1
2018-Jul-06 15:30N 48°43' W 123°24'612.2
2018-Jul-06 15:00N 48°48' W 123°19'0 0.6
2018-Jul-06 14:30N 48°48' W 123°19'3 5.3
2018-Jul-06 14:00N 48°51' W 123°20'2 3.6
2018-Jul-06 13:28N 48°53' W 123°19'3 5.7
2018-Jul-06 12:56N 48°50' W 123°21'512.2
2018-Jul-06 12:30N 48°45' W 123°23'4 7.0
2018-Jul-06 12:00N 48°41' W 123°25'0 0.0
2018-Jul-06 11:30N 48°41' W 123°25'0 0.0
2018-Jul-06 11:00N 48°41' W 123°25'0 0.0
2018-Jul-06 10:30N 48°41' W 123°25'0 0.0
2018-Jul-06 10:00N 48°41' W 123°25'0 0.0
2018-Jul-06 09:30N 48°41' W 123°25'0 0.0
2018-Jul-06 09:00N 48°41' W 123°25'0 0.0
2018-Jul-06 08:30N 48°41' W 123°25'0 0.0
2018-Jul-06 08:00N 48°41' W 123°25'0 0.0
2018-Jul-06 07:30N 48°41' W 123°25'0 0.0
2018-Jul-06 07:00N 48°41' W 123°25'0 0.0
2018-Jul-06 06:30N 48°41' W 123°25'0 0.0
2018-Jul-06 06:00N 48°41' W 123°25'1 2.8
2018-Jul-06 05:30N 48°43' W 123°24'612.5
2018-Jul-06 05:00N 48°48' W 123°19'3 5.8
2018-Jul-06 04:29N 48°46' W 123°22'5 9.8
2018-Jul-06 04:00N 48°41' W 123°25'4 8.4
2018-Jul-06 03:30N 48°45' W 123°22'3 6.8
2018-Jul-06 03:00N 48°48' W 123°19'510.8
2018-Jul-06 02:30N 48°43' W 123°21'  
Track history (hours):
 
Tides and Currents Weather Stations Pressure Air Temp Water Temp Dewpoint Dewpoint Depression Visibility Wind Speed Wind Dir Waves Ship Positions

Queen Of Cumberland

Last reported at 2018-Jul-16 02:30 UTC. Time now 2018-Jul-16 02:39 UTC.
Position N 48°46' W 123°21'.

Length 96 m; draft 3.7 m.

Type: Passenger vessel. MMSI: 316001252.

Date/timePositionNaut miles runAvg speedWind from/ knotsBaromVisibWave heightAir tempDewpointWater temp
2018-Jul-16 02:30N 48°46' W 123°21'611.1
2018-Jul-16 02:00N 48°41' W 123°25'1 2.4
2018-Jul-16 01:30N 48°42' W 123°24'612.5
2018-Jul-16 00:59N 48°48' W 123°19'4 7.0
2018-Jul-16 00:26N 48°45' W 123°22'4 8.6
2018-Jul-16 00:00N 48°41' W 123°25'4 7.2
2018-Jul-15 23:30N 48°45' W 123°23'611.7
2018-Jul-15 23:00N 48°50' W 123°20'0 0.5
2018-Jul-15 22:28N 48°51' W 123°20'3 4.5
2018-Jul-15 21:51N 48°48' W 123°19'3 9.9
2018-Jul-15 21:30N 48°45' W 123°22'4 8.5
2018-Jul-15 21:00N 48°41' W 123°25'0 0.0
2018-Jul-15 20:30N 48°41' W 123°25'510.7
2018-Jul-15 20:00N 48°46' W 123°20'2 4.5
2018-Jul-15 19:30N 48°48' W 123°20'5 9.5
2018-Jul-15 18:57N 48°48' W 123°12'4 7.3
2018-Jul-15 18:22N 48°49' W 123°18'1 4.0
2018-Jul-15 18:00N 48°51' W 123°20'3 6.9
2018-Jul-15 17:30N 48°47' W 123°21'612.4
2018-Jul-15 17:00N 48°42' W 123°24'0 0.6
2018-Jul-15 16:30N 48°41' W 123°25'510.7
2018-Jul-15 16:00N 48°46' W 123°21'2 4.6
2018-Jul-15 15:30N 48°48' W 123°19'4 8.0
2018-Jul-15 14:58N 48°52' W 123°18'1 2.2
2018-Jul-15 14:25N 48°52' W 123°20'510.2
2018-Jul-15 13:58N 48°47' W 123°21'612.6
2018-Jul-15 13:30N 48°42' W 123°24'0 0.6
2018-Jul-15 13:00N 48°41' W 123°25'0 0.0
2018-Jul-15 12:30N 48°41' W 123°25'0 0.0
2018-Jul-15 12:00N 48°41' W 123°25'0 0.0
2018-Jul-15 11:30N 48°41' W 123°25'0 0.0
2018-Jul-15 11:00N 48°41' W 123°25'0 0.0
2018-Jul-15 10:30N 48°41' W 123°25'0 0.0
2018-Jul-15 09:59N 48°41' W 123°25'0 0.0
2018-Jul-15 09:30N 48°41' W 123°25'0 0.0
2018-Jul-15 09:00N 48°41' W 123°25'0 0.0
2018-Jul-15 08:30N 48°41' W 123°25'0 0.0
2018-Jul-15 08:00N 48°41' W 123°25'0 0.0
2018-Jul-15 07:30N 48°41' W 123°25'0 0.0
2018-Jul-15 07:00N 48°41' W 123°25'0 0.0
2018-Jul-15 06:30N 48°41' W 123°25'0 0.0
2018-Jul-15 06:00N 48°41' W 123°25'0 0.0
2018-Jul-15 05:30N 48°41' W 123°25'4 7.4
2018-Jul-15 05:01N 48°45' W 123°23'612.5
2018-Jul-15 04:30N 48°51' W 123°20'3 5.2
2018-Jul-15 04:00N 48°48' W 123°20'2 5.0
2018-Jul-15 03:30N 48°46' W 123°21'5 9.9
2018-Jul-15 03:00N 48°41' W 123°25'2 4.0
2018-Jul-15 02:30N 48°43' W 123°24'6 9.7
2018-Jul-15 01:55N 48°48' W 123°19'3 6.6
2018-Jul-15 01:30N 48°51' W 123°20'2 4.7
2018-Jul-15 01:00N 48°48' W 123°21'612.5
2018-Jul-15 00:30N 48°43' W 123°24'1 2.5
2018-Jul-15 00:01N 48°41' W 123°24'712.2
2018-Jul-14 23:28N 48°48' W 123°21'3 6.9
2018-Jul-14 23:00N 48°51' W 123°20'3 5.5
2018-Jul-14 22:30N 48°48' W 123°19'3 6.9
2018-Jul-14 22:01N 48°45' W 123°22'4 8.4
2018-Jul-14 21:30N 48°41' W 123°25'0 0.0
2018-Jul-14 21:01N 48°41' W 123°25'0 0.0
2018-Jul-14 20:31N 48°41' W 123°25'5 9.2
2018-Jul-14 20:00N 48°45' W 123°20'3 6.0
2018-Jul-14 19:30N 48°48' W 123°19'612.2
2018-Jul-14 19:00N 48°42' W 123°22'2 3.6
2018-Jul-14 18:30N 48°41' W 123°25'5 9.0
2018-Jul-14 18:00N 48°46' W 123°22'5 9.7
2018-Jul-14 17:26N 48°51' W 123°20'3 6.2
2018-Jul-14 17:00N 48°48' W 123°19'2 4.9
2018-Jul-14 16:30N 48°46' W 123°21'510.0
2018-Jul-14 15:59N 48°41' W 123°25'1 2.6
2018-Jul-14 15:31N 48°42' W 123°24'612.7
2018-Jul-14 15:00N 48°48' W 123°19'1 1.2
2018-Jul-14 14:31N 48°48' W 123°20'3 3.2
2018-Jul-14 13:30N 48°51' W 123°21'611.8
2018-Jul-14 13:00N 48°45' W 123°22'4 8.8
2018-Jul-14 12:30N 48°41' W 123°25'0 0.0
2018-Jul-14 12:00N 48°41' W 123°25'0 0.0
2018-Jul-14 11:30N 48°41' W 123°25'0 0.0
2018-Jul-14 11:00N 48°41' W 123°25'0 0.0
2018-Jul-14 10:30N 48°41' W 123°25'0 0.0
2018-Jul-14 10:00N 48°41' W 123°25'0 0.0
2018-Jul-14 09:30N 48°41' W 123°25'0 0.0
2018-Jul-14 09:00N 48°41' W 123°25'0 0.0
2018-Jul-14 08:30N 48°41' W 123°25'0 0.0
2018-Jul-14 07:58N 48°41' W 123°25'0 0.0
2018-Jul-14 07:30N 48°41' W 123°25'0 0.0
2018-Jul-14 07:00N 48°41' W 123°25'0 0.0
2018-Jul-14 06:28N 48°41' W 123°25'0 0.0
2018-Jul-14 06:00N 48°41' W 123°25'0 0.0
2018-Jul-14 05:30N 48°41' W 123°25'612.3
2018-Jul-14 05:00N 48°47' W 123°20'1 2.4
2018-Jul-14 04:30N 48°46' W 123°21'5 9.8
2018-Jul-14 04:00N 48°41' W 123°25'1 1.5
2018-Jul-14 03:31N 48°42' W 123°24'713.5
2018-Jul-14 03:00N 48°48' W 123°19'2 3.0
2018-Jul-14 02:30N 48°47' W 123°20'612.0
2018-Jul-14 02:00N 48°41' W 123°24'1 1.1
2018-Jul-14 01:31N 48°42' W 123°24'713.2
2018-Jul-14 00:59N 48°49' W 123°21'2 4.5
2018-Jul-14 00:28N 48°51' W 123°20'612.0
2018-Jul-14 00:00N 48°45' W 123°22'4 8.7
2018-Jul-13 23:30N 48°41' W 123°25'2 4.4
2018-Jul-13 23:00N 48°43' W 123°24'611.0
2018-Jul-13 22:30N 48°48' W 123°19'2 4.3
2018-Jul-13 22:00N 48°46' W 123°21'511.1
2018-Jul-13 21:30N 48°41' W 123°25'0 0.0
2018-Jul-13 21:01N 48°41' W 123°25'0 0.0
2018-Jul-13 20:29N 48°41' W 123°25'0 0.0
2018-Jul-13 20:00N 48°41' W 123°25'3 5.2
2018-Jul-13 19:31N 48°44' W 123°24'510.0
2018-Jul-13 18:59N 48°48' W 123°19'2 4.6
2018-Jul-13 18:30N 48°50' W 123°20'0 0.4
2018-Jul-13 18:00N 48°50' W 123°20'611.2
2018-Jul-13 17:30N 48°48' W 123°12'5 8.4
2018-Jul-13 16:56N 48°50' W 123°19'510.9
2018-Jul-13 16:30N 48°45' W 123°22'4 8.7
2018-Jul-13 16:00N 48°41' W 123°25'2 3.1
2018-Jul-13 15:30N 48°43' W 123°24'611.8
2018-Jul-13 15:01N 48°48' W 123°19'3 2.9
2018-Jul-13 14:00N 48°51' W 123°20'2 3.8
2018-Jul-13 13:30N 48°53' W 123°19'3 5.6
2018-Jul-13 12:59N 48°50' W 123°21'612.2
2018-Jul-13 12:30N 48°44' W 123°23'3 6.4
2018-Jul-13 12:00N 48°41' W 123°25'0 0.0
2018-Jul-13 11:30N 48°41' W 123°25'0 0.0
2018-Jul-13 11:00N 48°41' W 123°25'0 0.0
2018-Jul-13 10:30N 48°41' W 123°25'0 0.0
2018-Jul-13 09:59N 48°41' W 123°25'0 0.0
2018-Jul-13 09:30N 48°41' W 123°25'0 0.0
2018-Jul-13 09:00N 48°41' W 123°25'0 0.0
2018-Jul-13 08:29N 48°41' W 123°25'0 0.0
2018-Jul-13 07:59N 48°41' W 123°25'0 0.0
2018-Jul-13 07:30N 48°41' W 123°25'0 0.0
2018-Jul-13 07:00N 48°41' W 123°25'0 0.0
2018-Jul-13 06:30N 48°41' W 123°25'0 0.7
2018-Jul-13 06:00N 48°42' W 123°24'612.2
2018-Jul-13 05:30N 48°47' W 123°20'2 3.4
2018-Jul-13 05:00N 48°46' W 123°21'5 9.8
2018-Jul-13 04:30N 48°41' W 123°25'4 9.0
2018-Jul-13 04:00N 48°45' W 123°22'3 6.1
2018-Jul-13 03:30N 48°48' W 123°19'611.2
2018-Jul-13 03:00N 48°43' W 123°24'2 4.3
2018-Jul-13 02:30N 48°41' W 123°25'611.3
2018-Jul-13 02:00N 48°47' W 123°21'4 6.7
2018-Jul-13 01:22N 48°51' W 123°20'2 6.2
2018-Jul-13 01:00N 48°48' W 123°20'611.7
2018-Jul-13 00:30N 48°43' W 123°24'2 3.7
2018-Jul-13 00:00N 48°41' W 123°25'0 0.0
2018-Jul-12 23:29N 48°41' W 123°25'510.9
2018-Jul-12 23:00N 48°46' W 123°21'2 4.6
2018-Jul-12 22:28N 48°48' W 123°19'4 7.9
2018-Jul-12 22:00N 48°45' W 123°22'4 8.0
2018-Jul-12 21:30N 48°41' W 123°25'0 0.0
2018-Jul-12 21:00N 48°41' W 123°25'0 0.0
2018-Jul-12 20:30N 48°41' W 123°25'0 0.0
2018-Jul-12 20:01N 48°41' W 123°25'612.0
2018-Jul-12 19:30N 48°47' W 123°20'2 3.0
2018-Jul-12 18:59N 48°48' W 123°19'3 5.7
2018-Jul-12 18:30N 48°51' W 123°20'5 3.9
2018-Jul-12 17:17N 48°48' W 123°13'414.6
2018-Jul-12 17:00N 48°50' W 123°19'611.8
2018-Jul-12 16:30N 48°44' W 123°23'3 6.1
2018-Jul-12 16:00N 48°41' W 123°25'2 4.4
2018-Jul-12 15:30N 48°43' W 123°24'611.1
2018-Jul-12 15:00N 48°48' W 123°19'0 0.4
2018-Jul-12 14:31N 48°48' W 123°19'3 5.7
2018-Jul-12 14:00N 48°51' W 123°20'2 3.8
2018-Jul-12 13:30N 48°53' W 123°19'3 5.5
2018-Jul-12 13:00N 48°50' W 123°21'611.3
2018-Jul-12 12:30N 48°45' W 123°23'4 7.2
2018-Jul-12 12:00N 48°41' W 123°25'0 0.0
2018-Jul-12 11:30N 48°41' W 123°25'0 0.0
2018-Jul-12 11:00N 48°41' W 123°25'0 0.0
2018-Jul-12 10:30N 48°41' W 123°25'0 0.0
2018-Jul-12 10:00N 48°41' W 123°25'0 0.0
2018-Jul-12 09:29N 48°41' W 123°25'0 0.0
2018-Jul-12 09:00N 48°41' W 123°25'0 0.0
2018-Jul-12 08:30N 48°41' W 123°25'0 0.0
2018-Jul-12 08:00N 48°41' W 123°25'0 0.0
2018-Jul-12 07:27N 48°41' W 123°25'0 0.0
2018-Jul-12 07:00N 48°41' W 123°25'0 0.0
2018-Jul-12 06:30N 48°41' W 123°25'0 0.0
2018-Jul-12 06:00N 48°41' W 123°25'0 0.0
2018-Jul-12 05:30N 48°41' W 123°25'0 0.0
2018-Jul-12 05:00N 48°41' W 123°25'1 2.6
2018-Jul-12 04:30N 48°43' W 123°24'713.1
2018-Jul-12 04:00N 48°49' W 123°20'4 7.8
2018-Jul-12 03:30N 48°53' W 123°19'3 5.3
2018-Jul-12 03:00N 48°50' W 123°20'2 4.7
2018-Jul-12 02:30N 48°48' W 123°19'612.7
2018-Jul-12 02:01N 48°42' W 123°24'1 2.1
2018-Jul-12 01:31N 48°41' W 123°25'510.4
2018-Jul-12 01:01N 48°46' W 123°22'5 9.0
2018-Jul-12 00:29N 48°51' W 123°20'2 3.7
2018-Jul-11 23:57N 48°49' W 123°20'612.8
2018-Jul-11 23:31N 48°44' W 123°24'2 4.7
2018-Jul-11 23:01N 48°41' W 123°25'4 8.9
2018-Jul-11 22:30N 48°45' W 123°22'3 6.3
2018-Jul-11 22:00N 48°48' W 123°19'510.4
2018-Jul-11 21:30N 48°44' W 123°24'3 5.2
2018-Jul-11 21:00N 48°41' W 123°25'0 0.0
2018-Jul-11 20:30N 48°41' W 123°25'0 0.0
2018-Jul-11 20:00N 48°41' W 123°25'2 4.4
2018-Jul-11 19:30N 48°43' W 123°24'610.6
2018-Jul-11 18:59N 48°48' W 123°19'2 5.1
2018-Jul-11 18:30N 48°50' W 123°20'1 1.4
2018-Jul-11 17:59N 48°50' W 123°20'4 4.2
2018-Jul-11 17:08N 48°49' W 123°14'314.8
2018-Jul-11 16:55N 48°50' W 123°19'511.8
2018-Jul-11 16:30N 48°45' W 123°22'4 8.4
2018-Jul-11 16:00N 48°41' W 123°25'1 2.5
2018-Jul-11 15:30N 48°42' W 123°24'612.8
2018-Jul-11 15:00N 48°48' W 123°19'1 1.5
2018-Jul-11 14:30N 48°48' W 123°20'3 7.0
2018-Jul-11 14:00N 48°52' W 123°21'1 2.9
2018-Jul-11 13:30N 48°53' W 123°19'3 5.7
2018-Jul-11 13:00N 48°50' W 123°21'611.8
2018-Jul-11 12:30N 48°44' W 123°23'3 6.3
2018-Jul-11 11:59N 48°41' W 123°25'0 0.0
2018-Jul-11 11:30N 48°41' W 123°25'0 0.0
2018-Jul-11 11:01N 48°41' W 123°25'0 0.0
2018-Jul-11 10:30N 48°41' W 123°25'0 0.0
2018-Jul-11 10:01N 48°41' W 123°25'0 0.0
2018-Jul-11 09:31N 48°41' W 123°25'0 0.0
2018-Jul-11 09:01N 48°41' W 123°25'0 0.0
2018-Jul-11 08:31N 48°41' W 123°25'0 0.0
2018-Jul-11 08:00N 48°41' W 123°25'0 0.0
2018-Jul-11 07:31N 48°41' W 123°25'0 0.0
2018-Jul-11 07:01N 48°41' W 123°25'0 0.0
2018-Jul-11 06:31N 48°41' W 123°25'0 0.0
2018-Jul-11 06:00N 48°41' W 123°25'0 0.0
2018-Jul-11 05:31N 48°41' W 123°25'0 0.0
2018-Jul-11 05:00N 48°41' W 123°25'1 2.5
2018-Jul-11 04:31N 48°43' W 123°24'713.2
2018-Jul-11 04:00N 48°49' W 123°21'4 7.9
2018-Jul-11 03:31N 48°53' W 123°19'3 6.3
2018-Jul-11 02:59N 48°49' W 123°20'2 4.3
2018-Jul-11 02:30N 48°47' W 123°20'612.3
2018-Jul-11 02:01N 48°42' W 123°24'1 1.6
2018-Jul-11 01:31N 48°41' W 123°25'611.3
2018-Jul-11 00:59N 48°47' W 123°21'4 6.6
2018-Jul-11 00:23N 48°51' W 123°20'4 9.8
2018-Jul-11 00:00N 48°47' W 123°20'612.4
2018-Jul-10 23:30N 48°41' W 123°24'0 0.2
2018-Jul-10 23:00N 48°41' W 123°25'611.2
2018-Jul-10 22:29N 48°46' W 123°21'2 3.3
2018-Jul-10 21:56N 48°48' W 123°19'512.5
2018-Jul-10 21:30N 48°44' W 123°24'2 4.6
2018-Jul-10 21:00N 48°41' W 123°25'0 0.0
2018-Jul-10 20:30N 48°41' W 123°25'0 0.0
2018-Jul-10 20:00N 48°41' W 123°25'3 5.1
2018-Jul-10 19:30N 48°44' W 123°23'5 9.4
2018-Jul-10 18:58N 48°48' W 123°19'3 5.9
2018-Jul-10 18:30N 48°51' W 123°20'6 8.1
2018-Jul-10 17:49N 48°48' W 123°12'1 2.3
2018-Jul-10 17:23N 48°47' W 123°13'4 9.8
2018-Jul-10 17:00N 48°44' W 123°11'510.3
2018-Jul-10 16:30N 48°42' W 123°18'5 9.1
2018-Jul-10 16:00N 48°41' W 123°25'1 1.9
2018-Jul-10 15:30N 48°42' W 123°24'713.0
2018-Jul-10 15:00N 48°48' W 123°19'1 1.2
2018-Jul-10 14:31N 48°48' W 123°20'3 5.1
2018-Jul-10 14:00N 48°51' W 123°20'2 3.8
2018-Jul-10 13:30N 48°53' W 123°19'3 5.8
2018-Jul-10 12:59N 48°50' W 123°21'511.5
2018-Jul-10 12:30N 48°45' W 123°23'3 6.7
2018-Jul-10 12:00N 48°41' W 123°25'0 0.0
2018-Jul-10 11:30N 48°41' W 123°25'0 0.0
2018-Jul-10 11:00N 48°41' W 123°25'0 0.0
2018-Jul-10 10:30N 48°41' W 123°25'0 0.0
2018-Jul-10 10:00N 48°41' W 123°25'0 0.0
2018-Jul-10 09:30N 48°41' W 123°25'0 0.0
2018-Jul-10 09:00N 48°41' W 123°25'0 0.0
2018-Jul-10 08:30N 48°41' W 123°25'0 0.0
2018-Jul-10 08:00N 48°41' W 123°25'0 0.0
2018-Jul-10 07:30N 48°41' W 123°25'0 0.0
2018-Jul-10 06:59N 48°41' W 123°25'0 0.0
2018-Jul-10 06:30N 48°41' W 123°25'0 0.0
2018-Jul-10 06:00N 48°41' W 123°25'0 0.0
2018-Jul-10 05:30N 48°41' W 123°25'0 0.0
2018-Jul-10 05:00N 48°41' W 123°25'2 3.9
2018-Jul-10 04:30N 48°43' W 123°24'713.1
2018-Jul-10 03:59N 48°50' W 123°20'3 6.4
2018-Jul-10 03:30N 48°53' W 123°19'3 4.9
2018-Jul-10 02:59N 48°50' W 123°20'3 5.5
2018-Jul-10 02:30N 48°47' W 123°20'612.9
2018-Jul-10 02:00N 48°42' W 123°24'0 0.9
2018-Jul-10 01:29N 48°42' W 123°24'511.3
2018-Jul-10 01:00N 48°47' W 123°21'4 5.1
2018-Jul-10 00:12N 48°51' W 123°20'310.9
2018-Jul-09 23:57N 48°48' W 123°20'612.5
2018-Jul-09 23:31N 48°43' W 123°24'2 3.4
2018-Jul-09 23:01N 48°41' W 123°25'4 8.2
2018-Jul-09 22:31N 48°45' W 123°22'4 6.9
2018-Jul-09 22:00N 48°48' W 123°19'5 9.7
2018-Jul-09 21:30N 48°44' W 123°23'3 5.9
2018-Jul-09 21:00N 48°41' W 123°25'0 0.0
2018-Jul-09 20:30N 48°41' W 123°25'0 0.0
2018-Jul-09 20:01N 48°41' W 123°25'4 7.4
2018-Jul-09 19:30N 48°45' W 123°22'4 8.0
2018-Jul-09 19:00N 48°48' W 123°19'2 4.2
2018-Jul-09 18:30N 48°50' W 123°20'0 0.7
2018-Jul-09 17:59N 48°50' W 123°20'5 8.2
2018-Jul-09 17:20N 48°48' W 123°12'4 9.7
2018-Jul-09 16:55N 48°49' W 123°18'511.9
2018-Jul-09 16:30N 48°45' W 123°22'4 8.8
2018-Jul-09 16:00N 48°41' W 123°25'1 2.8
2018-Jul-09 15:30N 48°43' W 123°24'612.4
2018-Jul-09 15:01N 48°48' W 123°19'0 0.1
2018-Jul-09 14:30N 48°48' W 123°19'3 5.4
2018-Jul-09 14:00N 48°51' W 123°20'2 3.4
2018-Jul-09 13:26N 48°53' W 123°19'2 5.9
2018-Jul-09 13:00N 48°51' W 123°21'611.9
2018-Jul-09 12:30N 48°45' W 123°23'4 7.3
2018-Jul-09 12:00N 48°41' W 123°25'0 0.0
2018-Jul-09 11:30N 48°41' W 123°25'0 0.0
2018-Jul-09 11:00N 48°41' W 123°25'0 0.0
2018-Jul-09 10:30N 48°41' W 123°25'0 0.0
2018-Jul-09 10:00N 48°41' W 123°25'0 0.0
2018-Jul-09 09:30N 48°41' W 123°25'0 0.0
2018-Jul-09 09:00N 48°41' W 123°25'0 0.0
2018-Jul-09 08:30N 48°41' W 123°25'0 0.0
2018-Jul-09 08:00N 48°41' W 123°25'0 0.0
2018-Jul-09 07:29N 48°41' W 123°25'0 0.0
2018-Jul-09 07:00N 48°41' W 123°25'0 0.0
2018-Jul-09 06:30N 48°41' W 123°25'0 0.0
2018-Jul-09 06:00N 48°41' W 123°25'0 0.0
2018-Jul-09 05:30N 48°41' W 123°25'0 0.0
2018-Jul-09 04:58N 48°41' W 123°25'511.3
2018-Jul-09 04:30N 48°46' W 123°21'2 3.9
2018-Jul-09 04:01N 48°48' W 123°20'3 5.0
2018-Jul-09 03:27N 48°51' W 123°20'3 6.1
2018-Jul-09 03:00N 48°48' W 123°19'3 5.4
2018-Jul-09 02:30N 48°46' W 123°21'5 9.9
2018-Jul-09 02:01N 48°41' W 123°25'2 3.2
2018-Jul-09 01:30N 48°43' W 123°24'611.5
2018-Jul-09 00:59N 48°48' W 123°19'3 7.4
2018-Jul-09 00:30N 48°45' W 123°22'4 8.3
2018-Jul-09 00:01N 48°41' W 123°25'4 8.8
2018-Jul-08 23:30N 48°45' W 123°22'6 9.7
2018-Jul-08 22:56N 48°51' W 123°20'1 3.3
2018-Jul-08 22:31N 48°49' W 123°20'1 2.4
2018-Jul-08 21:54N 48°48' W 123°19'410.7
2018-Jul-08 21:31N 48°45' W 123°23'4 7.1
2018-Jul-08 21:01N 48°41' W 123°25'0 0.0
2018-Jul-08 20:30N 48°41' W 123°25'510.5
2018-Jul-08 20:00N 48°46' W 123°21'2 4.5
2018-Jul-08 19:30N 48°48' W 123°19'4 7.1
2018-Jul-08 18:56N 48°48' W 123°13'1 2.1
2018-Jul-08 18:27N 48°48' W 123°14'4 8.7
2018-Jul-08 18:00N 48°51' W 123°20'3 6.5
2018-Jul-08 17:30N 48°48' W 123°21'713.0
2018-Jul-08 17:00N 48°42' W 123°24'0 0.5
2018-Jul-08 16:30N 48°41' W 123°25'510.8
2018-Jul-08 16:00N 48°46' W 123°21'2 4.2
2018-Jul-08 15:29N 48°48' W 123°19'4 8.5
2018-Jul-08 14:58N 48°52' W 123°18'0 0.8
2018-Jul-08 14:29N 48°53' W 123°19'2 4.0
2018-Jul-08 14:00N 48°51' W 123°20'611.6
2018-Jul-08 13:30N 48°45' W 123°22'4 8.4
2018-Jul-08 13:01N 48°41' W 123°25'0 0.0
2018-Jul-08 12:30N 48°41' W 123°25'0 0.0
2018-Jul-08 12:01N 48°41' W 123°25'0 0.0
2018-Jul-08 11:31N 48°41' W 123°25'0 0.0
2018-Jul-08 11:00N 48°41' W 123°25'0 0.0
2018-Jul-08 10:28N 48°41' W 123°25'0 0.0
2018-Jul-08 10:01N 48°41' W 123°25'0 0.0
2018-Jul-08 09:31N 48°41' W 123°25'0 0.0
2018-Jul-08 09:00N 48°41' W 123°25'0 0.0
2018-Jul-08 08:30N 48°41' W 123°25'0 0.0
2018-Jul-08 08:01N 48°41' W 123°25'0 0.0
2018-Jul-08 07:31N 48°41' W 123°25'0 0.0
2018-Jul-08 07:01N 48°41' W 123°25'0 0.0
2018-Jul-08 06:31N 48°41' W 123°25'0 0.0
2018-Jul-08 06:01N 48°41' W 123°25'0 0.0
2018-Jul-08 05:29N 48°41' W 123°25'4 7.7
2018-Jul-08 05:00N 48°45' W 123°23'612.4
2018-Jul-08 04:30N 48°51' W 123°20'2 5.0
2018-Jul-08 04:01N 48°48' W 123°20'2 4.7
2018-Jul-08 03:30N 48°46' W 123°21'510.0
2018-Jul-08 03:00N 48°41' W 123°25'2 4.6
2018-Jul-08 02:30N 48°44' W 123°24'510.6
2018-Jul-08 01:59N 48°48' W 123°19'3 5.7
2018-Jul-08 01:30N 48°51' W 123°20'4 6.7
2018-Jul-08 00:58N 48°47' W 123°21'612.6
2018-Jul-08 00:30N 48°42' W 123°24'1 1.1
2018-Jul-08 00:00N 48°41' W 123°25'611.3
2018-Jul-07 23:29N 48°47' W 123°21'4 8.4
2018-Jul-07 23:00N 48°51' W 123°20'3 5.3
2018-Jul-07 22:30N 48°48' W 123°19'4 7.7
2018-Jul-07 22:00N 48°45' W 123°22'4 7.8
2018-Jul-07 21:30N 48°41' W 123°25'0 0.0
2018-Jul-07 21:00N 48°41' W 123°25'0 0.0
2018-Jul-07 20:30N 48°41' W 123°25'5 9.5
2018-Jul-07 20:00N 48°46' W 123°22'3 5.8
2018-Jul-07 19:30N 48°48' W 123°19'613.0
2018-Jul-07 19:01N 48°42' W 123°24'1 2.3
2018-Jul-07 18:30N 48°41' W 123°25'510.5
2018-Jul-07 18:00N 48°46' W 123°22'5 9.1
2018-Jul-07 17:30N 48°51' W 123°20'3 5.6
2018-Jul-07 17:00N 48°48' W 123°19'2 3.7
2018-Jul-07 16:31N 48°46' W 123°20'611.4
2018-Jul-07 16:00N 48°41' W 123°25'2 3.2
2018-Jul-07 15:30N 48°43' W 123°24'612.1
2018-Jul-07 15:00N 48°48' W 123°19'2 3.9
2018-Jul-07 14:30N 48°50' W 123°20'3 5.8
2018-Jul-07 14:01N 48°53' W 123°19'2 4.1
2018-Jul-07 13:30N 48°51' W 123°21'611.6
2018-Jul-07 13:01N 48°45' W 123°22'4 8.7
2018-Jul-07 12:30N 48°41' W 123°25'0 0.0
2018-Jul-07 12:00N 48°41' W 123°25'0 0.0
2018-Jul-07 11:30N 48°41' W 123°25'0 0.0
2018-Jul-07 11:00N 48°41' W 123°25'0 0.0
2018-Jul-07 10:31N 48°41' W 123°25'0 0.0
2018-Jul-07 10:01N 48°41' W 123°25'0 0.0
2018-Jul-07 09:30N 48°41' W 123°25'0 0.0
2018-Jul-07 08:58N 48°41' W 123°25'0 0.0
2018-Jul-07 08:29N 48°41' W 123°25'0 0.0
2018-Jul-07 08:01N 48°41' W 123°25'0 0.0
2018-Jul-07 07:30N 48°41' W 123°25'0 0.0
2018-Jul-07 07:00N 48°41' W 123°25'0 0.0
2018-Jul-07 06:31N 48°41' W 123°25'0 0.0
2018-Jul-07 06:00N 48°41' W 123°25'3 6.3
2018-Jul-07 05:31N 48°44' W 123°23'4 8.5
2018-Jul-07 05:00N 48°48' W 123°19'2 5.1
2018-Jul-07 04:31N 48°46' W 123°21'5 9.9
2018-Jul-07 04:01N 48°41' W 123°25'4 7.8
2018-Jul-07 03:30N 48°45' W 123°22'4 6.7
2018-Jul-07 02:57N 48°48' W 123°19'512.0
2018-Jul-07 02:30N 48°43' W 123°21'3 5.6
2018-Jul-07 02:00N 48°41' W 123°25'4 7.8
2018-Jul-07 01:30N 48°45' W 123°23'612.0
2018-Jul-07 01:00N 48°51' W 123°20'2 3.7
2018-Jul-07 00:28N 48°49' W 123°21'612.5
2018-Jul-07 00:00N 48°43' W 123°24'2 4.3
2018-Jul-06 23:30N 48°41' W 123°25'3 6.1
2018-Jul-06 23:00N 48°44' W 123°23'5 8.2
2018-Jul-06 22:27N 48°48' W 123°19'3 6.1
2018-Jul-06 22:00N 48°46' W 123°22'510.1
2018-Jul-06 21:30N 48°41' W 123°25'0 0.0
2018-Jul-06 21:00N 48°41' W 123°25'0 0.0
2018-Jul-06 20:30N 48°41' W 123°25'0 0.0
2018-Jul-06 20:00N 48°41' W 123°25'510.0
2018-Jul-06 19:30N 48°46' W 123°21'3 5.2
2018-Jul-06 19:00N 48°48' W 123°19'3 4.4
2018-Jul-06 18:24N 48°51' W 123°20'6 6.6
2018-Jul-06 17:33N 48°48' W 123°12'0 0.3
2018-Jul-06 17:18N 48°48' W 123°12'513.0
2018-Jul-06 16:56N 48°50' W 123°19'512.6
2018-Jul-06 16:30N 48°45' W 123°23'4 7.3
2018-Jul-06 16:00N 48°41' W 123°25'2 3.1
2018-Jul-06 15:30N 48°43' W 123°24'612.2
2018-Jul-06 15:00N 48°48' W 123°19'0 0.6
2018-Jul-06 14:30N 48°48' W 123°19'3 5.3
2018-Jul-06 14:00N 48°51' W 123°20'2 3.6
2018-Jul-06 13:28N 48°53' W 123°19'3 5.7
2018-Jul-06 12:56N 48°50' W 123°21'512.2
2018-Jul-06 12:30N 48°45' W 123°23'4 7.0
2018-Jul-06 12:00N 48°41' W 123°25'0 0.0
2018-Jul-06 11:30N 48°41' W 123°25'0 0.0
2018-Jul-06 11:00N 48°41' W 123°25'0 0.0
2018-Jul-06 10:30N 48°41' W 123°25'0 0.0
2018-Jul-06 10:00N 48°41' W 123°25'0 0.0
2018-Jul-06 09:30N 48°41' W 123°25'0 0.0
2018-Jul-06 09:00N 48°41' W 123°25'0 0.0
2018-Jul-06 08:30N 48°41' W 123°25'0 0.0
2018-Jul-06 08:00N 48°41' W 123°25'0 0.0
2018-Jul-06 07:30N 48°41' W 123°25'0 0.0
2018-Jul-06 07:00N 48°41' W 123°25'0 0.0
2018-Jul-06 06:30N 48°41' W 123°25'0 0.0
2018-Jul-06 06:00N 48°41' W 123°25'1 2.8
2018-Jul-06 05:30N 48°43' W 123°24'612.5
2018-Jul-06 05:00N 48°48' W 123°19'3 5.8
2018-Jul-06 04:29N 48°46' W 123°22'5 9.8
2018-Jul-06 04:00N 48°41' W 123°25'4 8.4
2018-Jul-06 03:30N 48°45' W 123°22'3 6.8
2018-Jul-06 03:00N 48°48' W 123°19'510.8
2018-Jul-06 02:30N 48°43' W 123°21'  

Dump ship's entire track history